Bremerton National Airport
KPWT : now visible

Airfield :











YOU CAN JOIN US ON...

 
LOGIN :

Register | Disclaimer

   EN    FR    IT 

 









Legend :    VFR   Marginal VFR   IFR   Intensive IFR   Very Intensive IFR
Visi :
Ceiling :
>= 8 km
>= 3000ft
5 to 8 km
1000 to 3000 ft
1500m to 5 km
500 to 1000 ft
800 to 1500m
200 to 500 ft
< 800m
< 200 ft
Symbols :   Thunderstorms  Fog  Heavy snow  Heavy precipitations  Wind > 20 kt







- Airport Elevation : 444 ft
- IATA code : PWT


KPWT - Bremerton National

CURRENT METAR :
  • 220156Z AUTO 00000KT 10SM OVC020 17/14 A3003 RMK AO2 SLP185 T01670139

EXPIRED METARs :
  • 212356Z AUTO 00000KT 10SM BKN020 BKN025 OVC033 17/13 A3006 RMK AO2 SLP194 T01720133 10178 20139 57017
  • 212327Z AUTO VRB03KT 10SM BKN020 OVC032 17/13 A3006 RMK AO2
  • 212256Z AUTO 00000KT 10SM BKN023 OVC030 17/13 A3007 RMK AO2 SLP200 T01720128

TAF KPWT
Valid from the 22 at 00:00 until the 23 at 00:00 UTC


212338Z 2200/2224 20006KT P6SM FEW023 OVC030
FM220500 20003KT P6SM OVC050
FM221000 20008KT P6SM OVC030
FM221200 19010KT 4SM -RA BR OVC015
FM221400 20008KT 2SM -RA BR OVC008
FM221700 18010KT 4SM -RA BR OVC010
FM222200 19012KT P6SM OVC015
No reported NOTAMs for that airfield.



MET'MAP, your aeronautical weather chart ! - Copyright ORBIFLY December 2007 - Disclaimer

ORBIFLY MET'MAP TEAM :

Programming & Development : Alexandra Zaïnal
Concept & Development : Baudouin d'Aumeries
Co-Development & Prog : Marc-Olivier Méhu
Technical & hardware support : Manuel Goepfert

Contact : metmap@orbifly.com




SOURCES & CREDITS :

   NOAA       Earth
Advisory